Time;durP1;ratioP1;P1;durP2;ratioP2;P2;SDS_P1;SDS_P2;PMS_P1;PMS_P2;Temp;Humidity;BMP_temperature;BMP_pressure;BME280_temperature;BME280_humidity;BME280_pressure;Samples;Min_cycle;Max_cycle;Signal;HPM_P1;HPM_P2
2021/12/10 00:00:03;;;;;;;44.10;20.25;;;4.70;99.90;;;;;;4900701;29;20079;-72
2021/12/10 00:02:34;;;;;;;50.08;23.63;;;4.70;99.90;;;;;;4897846;29;20056;-73
2021/12/10 00:05:01;;;;;;;48.33;24.52;;;4.70;99.90;;;;;;4897466;29;20422;-73
2021/12/10 00:07:27;;;;;;;46.63;22.92;;;4.70;99.90;;;;;;4897875;29;20080;-72
2021/12/10 00:09:58;;;;;;;45.05;22.42;;;4.70;99.90;;;;;;4879142;29;20099;-72
2021/12/10 00:12:51;;;;;;;45.90;22.52;;;4.60;99.90;;;;;;4897798;29;20083;-73
2021/12/10 00:15:20;;;;;;;43.08;21.42;;;4.70;99.90;;;;;;4892622;29;20203;-73
2021/12/10 00:17:46;;;;;;;36.80;20.05;;;4.60;99.90;;;;;;4882834;29;20054;-73
2021/12/10 00:20:12;;;;;;;40.47;22.05;;;4.70;99.90;;;;;;4912348;29;20504;-73
2021/12/10 00:22:46;;;;;;;49.05;21.83;;;4.70;99.90;;;;;;4897650;29;20537;-73
2021/12/10 00:25:18;;;;;;;47.42;21.63;;;4.60;99.90;;;;;;4912625;29;20520;-73
2021/12/10 00:27:45;;;;;;;42.15;20.15;;;4.60;99.90;;;;;;4895730;29;20491;-73
2021/12/10 00:30:24;;;;;;;48.53;22.50;;;4.60;99.90;;;;;;4914533;29;20096;-73
2021/12/10 00:33:11;;;;;;;39.58;19.27;;;4.60;99.90;;;;;;4881677;29;20143;-73
2021/12/10 00:35:39;;;;;;;51.95;21.40;;;4.70;99.90;;;;;;4879892;29;20053;-72
2021/12/10 00:38:05;;;;;;;44.42;20.90;;;4.70;99.90;;;;;;4886188;29;20466;-72
2021/12/10 00:40:32;;;;;;;39.90;20.02;;;4.70;99.90;;;;;;4889641;29;20063;-73
2021/12/10 00:42:57;;;;;;;44.78;20.65;;;4.70;99.90;;;;;;4892385;29;20053;-73
2021/12/10 00:45:24;;;;;;;44.95;19.60;;;4.80;99.90;;;;;;4884784;29;20486;-72
2021/12/10 00:47:50;;;;;;;44.90;20.75;;;5.20;99.90;;;;;;4886104;29;20045;-73
2021/12/10 00:50:21;;;;;;;37.40;19.05;;;4.70;99.90;;;;;;4897323;29;20058;-73
2021/12/10 00:52:48;;;;;;;44.97;20.48;;;4.70;99.90;;;;;;4920121;29;20499;-73
2021/12/10 00:55:14;;;;;;;39.17;19.58;;;4.70;99.90;;;;;;4896765;29;20555;-73
2021/12/10 00:57:40;;;;;;;38.38;18.52;;;4.70;99.90;;;;;;4913348;29;20051;-73
2021/12/10 01:00:10;;;;;;;39.72;18.15;;;4.70;99.90;;;;;;4897323;29;20044;-73
2021/12/10 01:02:36;;;;;;;38.97;18.17;;;4.70;99.90;;;;;;4901170;29;20052;-73
2021/12/10 01:05:01;;;;;;;44.08;18.63;;;4.70;99.90;;;;;;4879183;29;20462;-73
2021/12/10 01:07:31;;;;;;;38.85;18.60;;;4.70;99.90;;;;;;4891241;29;20456;-73
2021/12/10 01:09:59;;;;;;;40.08;19.25;;;4.70;99.90;;;;;;4894941;29;20062;-73
2021/12/10 01:12:36;;;;;;;37.72;18.33;;;4.70;99.90;;;;;;4900184;29;20055;-73
2021/12/10 01:26:21;;;;;;;40.05;17.48;;;4.70;99.90;;;;;;4900324;29;20088;-73
2021/12/10 01:28:52;;;;;;;36.05;17.63;;;4.80;99.90;;;;;;4898849;29;20147;-73
2021/12/10 01:31:18;;;;;;;40.85;17.83;;;4.80;99.90;;;;;;4883883;29;20096;-73
2021/12/10 01:33:44;;;;;;;39.80;17.65;;;4.80;99.90;;;;;;4927404;29;20048;-73
2021/12/10 01:36:10;;;;;;;32.50;16.95;;;4.80;99.90;;;;;;4899783;29;20485;-73
2021/12/10 01:38:39;;;;;;;37.45;18.35;;;4.70;99.90;;;;;;4900349;29;20115;-73
2021/12/10 01:41:09;;;;;;;40.58;19.00;;;4.90;99.90;;;;;;4905815;29;20560;-73
2021/12/10 01:43:38;;;;;;;38.47;18.00;;;4.70;99.90;;;;;;4896801;29;20080;-73
2021/12/10 01:46:10;;;;;;;35.13;16.52;;;4.80;99.90;;;;;;4917321;29;20044;-73
2021/12/10 01:48:43;;;;;;;37.35;17.02;;;5.00;99.90;;;;;;4893700;29;20071;-73
2021/12/10 01:51:10;;;;;;;35.92;17.33;;;4.80;99.90;;;;;;4888098;29;20493;-73
2021/12/10 01:53:39;;;;;;;38.28;18.92;;;4.80;99.90;;;;;;4898370;29;20212;-73
2021/12/10 01:56:12;;;;;;;37.70;19.48;;;4.90;99.90;;;;;;4893403;29;20100;-73
2021/12/10 01:58:39;;;;;;;31.58;17.65;;;5.00;99.90;;;;;;4888165;29;20143;-73
2021/12/10 02:01:08;;;;;;;34.83;18.63;;;4.70;99.90;;;;;;4882448;29;20076;-73
2021/12/10 02:03:35;;;;;;;34.72;19.13;;;4.70;99.90;;;;;;4909844;29;20111;-73
2021/12/10 02:06:01;;;;;;;36.88;18.08;;;4.70;99.90;;;;;;4885240;29;20052;-73
2021/12/10 02:08:27;;;;;;;34.20;17.10;;;4.70;99.90;;;;;;4908970;29;20507;-73
2021/12/10 02:10:52;;;;;;;34.35;18.50;;;4.70;99.90;;;;;;4898253;29;20132;-73
2021/12/10 02:13:18;;;;;;;33.50;17.15;;;4.70;99.90;;;;;;4916059;29;20087;-73
2021/12/10 02:15:44;;;;;;;37.88;18.50;;;4.70;99.90;;;;;;4898375;29;20036;-73
2021/12/10 02:18:12;;;;;;;32.60;17.88;;;4.70;99.90;;;;;;4889778;29;20505;-73
2021/12/10 02:21:12;;;;;;;29.48;16.67;;;4.70;99.90;;;;;;4886240;29;20122;-73
2021/12/10 02:23:45;;;;;;;39.10;16.67;;;4.70;99.90;;;;;;4888644;29;20044;-73
2021/12/10 02:26:13;;;;;;;35.55;16.73;;;4.70;99.90;;;;;;4883339;29;20112;-73
2021/12/10 02:28:40;;;;;;;29.10;15.00;;;5.20;99.90;;;;;;4899506;29;20475;-73
2021/12/10 02:31:08;;;;;;;28.52;15.23;;;4.70;99.90;;;;;;4899126;29;20051;-73
2021/12/10 02:33:34;;;;;;;32.15;15.00;;;4.90;99.90;;;;;;4898799;29;20079;-73
2021/12/10 02:36:00;;;;;;;29.40;14.82;;;4.70;99.90;;;;;;4898998;29;20063;-73
2021/12/10 02:38:26;;;;;;;24.92;15.13;;;4.70;99.90;;;;;;4899667;29;20484;-73
2021/12/10 02:40:55;;;;;;;31.55;14.32;;;4.70;99.90;;;;;;4898908;29;20048;-73
2021/12/10 02:43:23;;;;;;;29.60;14.95;;;4.70;99.90;;;;;;4893580;29;20060;-73
2021/12/10 02:45:55;;;;;;;25.65;13.52;;;4.70;99.90;;;;;;4915489;29;20044;-73
2021/12/10 02:48:23;;;;;;;26.40;13.85;;;4.70;99.90;;;;;;4915945;29;20055;-73
2021/12/10 02:50:48;;;;;;;29.40;12.82;;;4.70;99.90;;;;;;4899074;29;20044;-73
2021/12/10 02:53:16;;;;;;;25.73;13.18;;;4.70;99.90;;;;;;4898007;29;20059;-73
2021/12/10 02:55:43;;;;;;;29.88;14.30;;;4.60;99.90;;;;;;4899061;29;20055;-73
2021/12/10 02:58:12;;;;;;;26.58;13.15;;;4.60;99.90;;;;;;4898938;29;20040;-73
2021/12/10 03:00:44;;;;;;;29.35;14.75;;;4.60;99.90;;;;;;4909999;29;20040;-73
2021/12/10 03:03:10;;;;;;;30.45;14.00;;;4.60;99.90;;;;;;4886532;29;20051;-73
2021/12/10 03:05:36;;;;;;;35.33;14.25;;;4.60;99.90;;;;;;4896890;29;20052;-73
2021/12/10 03:08:01;;;;;;;27.30;14.55;;;4.60;99.90;;;;;;4884037;29;20062;-73
2021/12/10 03:10:29;;;;;;;26.42;13.95;;;4.60;99.90;;;;;;4887917;29;20043;-73
2021/12/10 03:12:56;;;;;;;30.73;14.68;;;4.60;99.90;;;;;;4912631;29;20052;-73
2021/12/10 03:15:23;;;;;;;29.73;13.70;;;4.60;99.90;;;;;;4900035;29;20048;-72
2021/12/10 03:17:49;;;;;;;32.83;14.20;;;4.60;99.90;;;;;;4893568;29;20083;-73
2021/12/10 03:20:17;;;;;;;30.63;14.05;;;4.60;99.90;;;;;;4882336;29;20048;-73
2021/12/10 03:22:43;;;;;;;28.48;12.98;;;4.50;99.90;;;;;;4896257;29;20485;-73
2021/12/10 03:25:12;;;;;;;25.38;12.95;;;4.60;99.90;;;;;;4888182;29;20064;-73
2021/12/10 03:27:38;;;;;;;24.23;12.80;;;4.60;99.90;;;;;;4915668;29;20134;-73
2021/12/10 03:30:09;;;;;;;26.02;13.30;;;4.60;99.90;;;;;;4914784;29;20156;-73
2021/12/10 03:32:38;;;;;;;31.40;13.13;;;4.60;99.90;;;;;;4898298;29;20048;-73
2021/12/10 03:35:09;;;;;;;25.67;13.75;;;4.70;99.90;;;;;;4914895;29;20067;-73
2021/12/10 03:37:38;;;;;;;27.38;12.70;;;4.60;99.90;;;;;;4898069;29;20044;-73
2021/12/10 03:40:07;;;;;;;29.83;14.00;;;4.50;99.90;;;;;;4897682;29;20052;-73
2021/12/10 03:42:33;;;;;;;28.10;13.52;;;4.60;99.90;;;;;;4897187;29;20056;-72
2021/12/10 03:44:58;;;;;;;27.92;14.20;;;4.60;99.90;;;;;;4897274;29;20071;-73
2021/12/10 03:47:24;;;;;;;26.20;15.27;;;4.60;99.90;;;;;;4898227;29;20076;-73
2021/12/10 03:49:50;;;;;;;25.90;13.90;;;4.60;99.90;;;;;;4897899;29;20048;-73
2021/12/10 03:52:16;;;;;;;25.95;13.70;;;4.60;99.90;;;;;;4897714;29;20059;-73
2021/12/10 03:54:42;;;;;;;28.58;14.90;;;4.60;99.90;;;;;;4898079;29;20084;-73
2021/12/10 03:57:10;;;;;;;29.30;14.55;;;4.60;99.90;;;;;;4914264;29;20051;-73
2021/12/10 03:59:37;;;;;;;26.15;15.00;;;4.60;99.90;;;;;;4929974;29;20056;-73
2021/12/10 04:02:05;;;;;;;31.35;16.63;;;4.60;99.90;;;;;;4914703;29;20095;-73
2021/12/10 04:04:44;;;;;;;24.50;15.25;;;4.60;99.90;;;;;;4897429;29;20052;-73
2021/12/10 04:07:14;;;;;;;32.33;17.02;;;4.60;99.90;;;;;;4889338;29;20049;-73
2021/12/10 04:09:40;;;;;;;29.88;18.48;;;4.60;99.90;;;;;;4894655;29;20048;-73
2021/12/10 04:12:08;;;;;;;35.28;18.38;;;4.70;99.90;;;;;;4896982;29;20484;-72
2021/12/10 04:14:35;;;;;;;34.40;17.60;;;4.60;99.90;;;;;;4897593;29;20036;-73
2021/12/10 04:17:02;;;;;;;35.58;18.50;;;4.60;99.90;;;;;;4897506;29;20052;-73
2021/12/10 04:19:30;;;;;;;35.08;19.15;;;4.60;99.90;;;;;;4897666;29;20048;-73
2021/12/10 04:22:00;;;;;;;34.25;20.20;;;4.50;99.90;;;;;;4897461;29;20055;-73
2021/12/10 04:24:31;;;;;;;35.58;20.63;;;4.50;99.90;;;;;;4897965;29;20063;-73
2021/12/10 04:26:58;;;;;;;37.92;21.25;;;4.50;99.90;;;;;;4912869;29;20127;-72
2021/12/10 04:29:24;;;;;;;30.10;19.45;;;4.50;99.90;;;;;;4914806;29;20063;-72
2021/12/10 04:31:53;;;;;;;32.60;17.92;;;4.50;99.90;;;;;;4929173;29;20044;-73
2021/12/10 04:34:21;;;;;;;34.10;18.38;;;4.50;99.90;;;;;;4896662;29;20052;-73
2021/12/10 04:36:49;;;;;;;32.33;17.98;;;4.50;99.90;;;;;;4894402;29;20100;-73
2021/12/10 04:39:14;;;;;;;28.38;16.92;;;4.50;99.90;;;;;;4887728;29;20067;-73
2021/12/10 04:41:40;;;;;;;31.20;17.55;;;4.50;99.90;;;;;;4896970;29;20040;-73
2021/12/10 04:44:07;;;;;;;32.65;15.45;;;4.40;99.90;;;;;;4885087;29;20043;-72
2021/12/10 04:46:34;;;;;;;30.73;17.13;;;4.40;99.90;;;;;;4898816;29;20040;-73
2021/12/10 04:49:04;;;;;;;27.58;15.40;;;4.40;99.90;;;;;;4925790;29;20062;-73
2021/12/10 04:51:35;;;;;;;28.98;15.65;;;4.40;99.90;;;;;;4918235;29;20523;-72
2021/12/10 04:54:01;;;;;;;29.80;15.90;;;4.30;99.90;;;;;;4900707;29;20067;-72
2021/12/10 04:56:28;;;;;;;31.30;17.23;;;4.30;99.90;;;;;;4899438;29;20531;-72
2021/12/10 04:58:54;;;;;;;26.20;15.25;;;4.20;99.90;;;;;;4887520;29;20040;-72
2021/12/10 05:01:20;;;;;;;30.95;16.25;;;4.20;99.90;;;;;;4887592;29;20052;-71
2021/12/10 05:03:46;;;;;;;33.05;16.35;;;4.20;99.90;;;;;;4895142;29;20104;-72
2021/12/10 05:06:12;;;;;;;28.20;15.63;;;4.10;99.90;;;;;;4901036;29;20044;-72
2021/12/10 05:08:39;;;;;;;30.30;14.93;;;4.10;99.90;;;;;;4900630;29;20048;-72
2021/12/10 05:11:07;;;;;;;27.48;15.23;;;4.60;99.90;;;;;;4912600;29;20130;-71
2021/12/10 05:13:34;;;;;;;26.48;15.75;;;4.00;99.90;;;;;;4889002;29;20144;-72
2021/12/10 05:16:01;;;;;;;26.90;15.75;;;4.00;99.90;;;;;;4908254;29;20055;-71
2021/12/10 05:18:31;;;;;;;23.55;14.45;;;3.90;99.90;;;;;;4887380;29;20100;-71
2021/12/10 05:20:57;;;;;;;29.83;14.70;;;3.90;99.90;;;;;;4898066;29;20489;-72
2021/12/10 05:23:23;;;;;;;25.50;15.63;;;3.90;99.90;;;;;;4917038;29;20404;-71
2021/12/10 05:25:50;;;;;;;31.90;17.25;;;3.80;99.90;;;;;;4917819;29;20052;-71
2021/12/10 05:28:16;;;;;;;31.30;15.82;;;3.80;99.90;;;;;;4892839;29;20051;-71
2021/12/10 05:30:43;;;;;;;25.33;15.80;;;3.80;99.90;;;;;;4900721;29;20097;-72
2021/12/10 05:33:15;;;;;;;28.42;17.45;;;3.80;99.90;;;;;;4900108;29;20055;-71
2021/12/10 05:35:41;;;;;;;30.48;17.13;;;3.60;99.90;;;;;;4900394;29;20079;-72
2021/12/10 05:38:06;;;;;;;29.70;17.65;;;3.70;99.90;;;;;;4916675;29;20051;-71
2021/12/10 05:40:32;;;;;;;32.38;17.58;;;3.70;99.90;;;;;;4900322;29;20481;-71
2021/12/10 05:42:58;;;;;;;35.28;17.73;;;3.60;99.90;;;;;;4916917;29;20047;-72
2021/12/10 05:45:24;;;;;;;30.33;17.85;;;3.60;99.90;;;;;;4900338;29;20441;-72
2021/12/10 05:47:51;;;;;;;30.05;18.20;;;3.60;99.90;;;;;;4896888;29;20076;-72
2021/12/10 05:50:20;;;;;;;29.55;17.13;;;3.70;99.90;;;;;;4892421;29;20084;-71
2021/12/10 05:52:46;;;;;;;30.15;17.80;;;3.60;99.90;;;;;;4890094;29;20135;-71
2021/12/10 05:55:12;;;;;;;33.53;17.65;;;3.50;99.90;;;;;;4888318;29;20452;-71
2021/12/10 05:57:38;;;;;;;25.67;16.48;;;3.50;99.90;;;;;;4890215;29;20053;-72
2021/12/10 06:00:08;;;;;;;28.60;16.40;;;3.50;99.90;;;;;;4904196;29;20054;-72
2021/12/10 06:02:34;;;;;;;29.45;17.48;;;3.50;99.90;;;;;;4895598;29;20044;-72
2021/12/10 06:04:59;;;;;;;27.15;16.17;;;3.40;99.90;;;;;;4899752;29;20104;-72
2021/12/10 06:07:25;;;;;;;26.48;14.88;;;3.40;99.90;;;;;;4890873;29;20056;-72
2021/12/10 06:09:51;;;;;;;28.70;15.68;;;3.40;99.90;;;;;;4885604;29;20032;-72
2021/12/10 06:12:17;;;;;;;27.80;16.20;;;3.40;99.90;;;;;;4896107;29;20056;-72
2021/12/10 06:14:42;;;;;;;24.58;16.08;;;3.40;99.90;;;;;;4898332;29;20103;-72
2021/12/10 06:17:08;;;;;;;24.45;15.98;;;3.40;99.90;;;;;;4897555;29;20087;-72
2021/12/10 06:19:34;;;;;;;29.40;14.73;;;3.40;99.90;;;;;;4913441;29;20044;-73
2021/12/10 06:22:00;;;;;;;27.13;16.08;;;3.40;99.90;;;;;;4884769;29;20051;-72
2021/12/10 06:24:26;;;;;;;32.33;16.90;;;3.40;99.90;;;;;;4911941;29;20051;-73
2021/12/10 06:26:52;;;;;;;27.50;16.67;;;3.40;99.90;;;;;;4892902;29;20063;-72
2021/12/10 06:29:22;;;;;;;33.40;15.20;;;3.40;99.90;;;;;;4886656;29;20048;-72
2021/12/10 06:31:48;;;;;;;26.70;15.20;;;3.70;99.90;;;;;;4884774;29;20096;-72
2021/12/10 06:34:14;;;;;;;27.45;15.02;;;3.80;99.90;;;;;;4893315;29;20437;-72
2021/12/10 06:36:40;;;;;;;27.38;15.68;;;3.40;99.90;;;;;;4891752;29;20103;-73
2021/12/10 06:39:07;;;;;;;22.70;13.75;;;3.40;99.90;;;;;;4881903;29;20043;-70
2021/12/10 06:41:33;;;;;;;25.40;14.82;;;3.40;99.90;;;;;;4899380;29;20050;-70
2021/12/10 06:44:04;;;;;;;26.05;14.80;;;3.30;99.90;;;;;;4891571;29;20041;-71
2021/12/10 06:46:31;;;;;;;23.08;13.90;;;3.30;99.90;;;;;;4895085;29;20064;-71
2021/12/10 06:48:57;;;;;;;23.33;13.32;;;3.30;99.90;;;;;;4880674;29;20482;-71
2021/12/10 06:51:23;;;;;;;25.65;13.73;;;4.00;99.90;;;;;;4897670;29;20098;-70
2021/12/10 06:53:49;;;;;;;22.67;13.63;;;3.20;99.90;;;;;;4886990;29;20047;-70
2021/12/10 06:56:16;;;;;;;24.60;12.88;;;3.20;99.90;;;;;;4891769;29;20485;-70
2021/12/10 06:58:43;;;;;;;21.08;12.80;;;3.20;99.90;;;;;;4880742;29;20563;-71
2021/12/10 07:01:18;;;;;;;20.23;12.77;;;3.10;99.90;;;;;;4896095;29;20059;-71
2021/12/10 07:03:45;;;;;;;26.10;13.20;;;3.10;99.90;;;;;;4888787;29;20041;-71
2021/12/10 07:06:11;;;;;;;20.02;12.05;;;3.10;99.90;;;;;;4880197;29;20048;-71
2021/12/10 07:08:41;;;;;;;21.83;12.90;;;3.10;99.90;;;;;;4879556;29;20508;-71
2021/12/10 07:11:11;;;;;;;22.45;12.40;;;3.00;99.90;;;;;;4893178;29;20222;-71
2021/12/10 07:13:43;;;;;;;18.35;11.90;;;3.00;99.90;;;;;;4881197;29;20736;-71
2021/12/10 07:16:09;;;;;;;22.33;11.23;;;2.90;99.90;;;;;;4892087;29;20051;-71
2021/12/10 07:18:35;;;;;;;21.08;11.27;;;2.90;99.90;;;;;;4880355;29;20519;-72
2021/12/10 07:21:01;;;;;;;26.30;11.52;;;2.90;99.90;;;;;;4893183;29;20052;-71
2021/12/10 07:23:27;;;;;;;19.13;10.70;;;2.90;99.90;;;;;;4915218;29;20080;-71
2021/12/10 07:25:53;;;;;;;20.30;12.65;;;2.90;99.90;;;;;;4882154;29;20041;-72
2021/12/10 07:28:19;;;;;;;22.10;11.15;;;2.90;99.90;;;;;;4893800;29;20060;-72
2021/12/10 07:30:47;;;;;;;18.63;10.45;;;2.80;99.90;;;;;;4886529;29;20052;-72
2021/12/10 07:33:14;;;;;;;19.48;10.45;;;2.80;99.90;;;;;;4896236;29;20113;-72
2021/12/10 07:35:40;;;;;;;20.17;11.25;;;2.80;99.90;;;;;;4886456;29;20049;-72
2021/12/10 07:38:06;;;;;;;19.15;10.55;;;2.90;99.90;;;;;;4879355;29;20048;-74
2021/12/10 07:40:35;;;;;;;19.50;10.77;;;2.70;99.90;;;;;;4908914;29;20055;-71
2021/12/10 07:43:01;;;;;;;19.70;10.98;;;2.70;99.90;;;;;;4896973;29;20071;-71
2021/12/10 07:45:27;;;;;;;20.95;10.20;;;2.70;99.90;;;;;;4892220;29;20048;-71
2021/12/10 07:47:56;;;;;;;21.05;10.30;;;2.70;99.90;;;;;;4891755;29;20056;-71
2021/12/10 07:50:26;;;;;;;20.98;10.02;;;2.70;99.90;;;;;;4911329;29;20875;-71
2021/12/10 07:52:56;;;;;;;19.17;10.13;;;2.60;99.90;;;;;;4906014;29;20512;-71
2021/12/10 07:55:25;;;;;;;16.27;9.45;;;2.60;99.90;;;;;;4888910;29;20052;-71
2021/12/10 07:57:51;;;;;;;21.00;9.77;;;2.60;99.90;;;;;;4892873;29;20044;-71
2021/12/10 08:00:19;;;;;;;16.73;9.68;;;2.80;99.90;;;;;;4892483;29;20052;-71
2021/12/10 08:02:45;;;;;;;16.02;10.18;;;2.60;99.90;;;;;;4879372;29;20057;-71
2021/12/10 08:05:12;;;;;;;16.85;10.00;;;2.50;99.90;;;;;;4879328;29;20036;-71
2021/12/10 08:07:38;;;;;;;19.42;9.63;;;2.50;99.90;;;;;;4889704;29;20495;-72
2021/12/10 08:10:06;;;;;;;16.08;9.73;;;2.50;99.90;;;;;;4878803;29;20040;-72
2021/12/10 08:12:32;;;;;;;15.93;9.52;;;2.50;99.90;;;;;;4912196;29;20130;-72
2021/12/10 08:14:58;;;;;;;18.58;9.27;;;2.50;99.90;;;;;;4913402;29;20135;-72
2021/12/10 08:17:24;;;;;;;18.77;9.85;;;2.50;99.90;;;;;;4911097;29;20120;-72
2021/12/10 08:19:51;;;;;;;16.42;10.45;;;2.60;99.90;;;;;;4910439;29;20047;-73
2021/12/10 08:22:17;;;;;;;19.48;9.50;;;2.50;99.90;;;;;;4901626;29;20060;-72
2021/12/10 08:24:43;;;;;;;16.25;8.95;;;2.50;99.90;;;;;;4905855;29;20424;-72
2021/12/10 08:27:10;;;;;;;14.80;8.82;;;2.50;99.90;;;;;;4901673;29;20052;-72
2021/12/10 08:29:35;;;;;;;15.27;8.70;;;2.50;99.90;;;;;;4898193;29;20154;-72
2021/12/10 08:32:02;;;;;;;18.27;8.73;;;2.50;99.90;;;;;;4916284;29;20059;-72
2021/12/10 08:34:29;;;;;;;18.30;9.85;;;2.50;99.90;;;;;;4903773;29;20443;-72
2021/12/10 08:36:55;;;;;;;19.08;9.27;;;2.50;99.90;;;;;;4900755;29;20716;-72
2021/12/10 08:39:21;;;;;;;18.90;8.70;;;2.50;99.90;;;;;;4914948;29;20058;-72
2021/12/10 08:41:46;;;;;;;19.83;9.15;;;2.60;99.90;;;;;;4902924;29;20052;-72
2021/12/10 08:44:13;;;;;;;17.15;8.30;;;2.60;99.90;;;;;;4902145;29;20074;-72
2021/12/10 08:46:41;;;;;;;15.57;9.57;;;2.60;99.90;;;;;;4905883;29;20044;-72
2021/12/10 08:49:07;;;;;;;14.85;8.27;;;2.60;99.90;;;;;;4901948;29;20441;-72
2021/12/10 08:51:40;;;;;;;18.02;9.15;;;2.60;99.90;;;;;;4916439;29;21278;-72
2021/12/10 08:54:07;;;;;;;17.38;9.05;;;2.70;99.90;;;;;;4903520;29;20175;-72
2021/12/10 08:56:33;;;;;;;17.67;8.20;;;2.70;99.90;;;;;;4905937;29;20068;-72
2021/12/10 08:59:00;;;;;;;20.35;8.68;;;2.70;99.90;;;;;;4904137;29;20563;-72
2021/12/10 09:01:34;;;;;;;17.60;8.73;;;2.70;99.90;;;;;;4914388;29;20072;-72
2021/12/10 09:04:01;;;;;;;;;;;2.70;99.90;;;;;;4903146;29;20070;-72
2021/12/10 09:06:29;;;;;;;17.60;8.38;;;2.70;99.90;;;;;;4902916;29;19926;-72
2021/12/10 09:08:56;;;;;;;14.07;7.40;;;2.80;99.90;;;;;;4903634;29;20059;-72
2021/12/10 09:11:23;;;;;;;14.38;7.78;;;2.80;99.90;;;;;;4898407;29;20475;-72
2021/12/10 09:13:49;;;;;;;15.15;7.93;;;2.80;99.90;;;;;;4904106;29;20424;-72
2021/12/10 09:16:23;;;;;;;18.63;8.57;;;2.80;99.90;;;;;;4904931;29;20059;-72
2021/12/10 09:18:52;;;;;;;17.23;7.23;;;2.80;99.90;;;;;;4903918;29;20052;-72
2021/12/10 09:21:18;;;;;;;12.27;7.28;;;2.80;99.90;;;;;;4898489;29;20323;-72
2021/12/10 09:23:44;;;;;;;15.77;8.05;;;2.80;99.90;;;;;;4901917;29;20044;-73
2021/12/10 09:26:14;;;;;;;15.38;7.88;;;2.90;99.90;;;;;;4898118;29;20064;-73
2021/12/10 09:28:42;;;;;;;13.68;7.47;;;2.90;99.90;;;;;;4899724;29;20048;-73
2021/12/10 09:31:09;;;;;;;13.85;7.82;;;2.90;99.90;;;;;;4914277;29;20578;-73
2021/12/10 09:33:36;;;;;;;14.35;7.18;;;3.00;99.90;;;;;;4901084;29;20143;-73
2021/12/10 09:36:03;;;;;;;12.85;7.43;;;3.00;99.90;;;;;;4907716;29;20452;-73
2021/12/10 09:38:29;;;;;;;15.13;8.15;;;3.00;99.90;;;;;;4907214;29;20059;-73
2021/12/10 09:40:58;;;;;;;14.75;7.80;;;3.00;99.90;;;;;;4903408;29;20100;-73
2021/12/10 09:43:24;;;;;;;14.55;7.72;;;3.00;99.90;;;;;;4905546;29;20074;-73
2021/12/10 09:45:52;;;;;;;13.93;7.00;;;3.10;99.90;;;;;;4904826;29;20099;-73
2021/12/10 09:48:18;;;;;;;13.43;7.43;;;3.10;99.90;;;;;;4908789;29;20497;-73
2021/12/10 09:50:55;;;;;;;14.60;8.27;;;3.20;99.90;;;;;;4897377;29;20119;-73
2021/12/10 09:53:23;;;;;;;17.58;7.40;;;3.20;99.90;;;;;;4904479;29;20058;-73
2021/12/10 09:55:49;;;;;;;14.23;7.05;;;3.20;99.90;;;;;;4906171;29;20109;-73
2021/12/10 09:58:17;;;;;;;16.20;7.38;;;3.30;99.90;;;;;;4906744;29;20144;-73
2021/12/10 10:01:00;;;;;;;16.10;7.55;;;3.30;99.90;;;;;;4904678;29;20052;-73
2021/12/10 10:03:32;;;;;;;13.40;6.72;;;3.30;99.90;;;;;;4905726;29;20059;-73
2021/12/10 10:05:59;;;;;;;12.18;6.55;;;3.30;99.90;;;;;;4907822;29;20135;-74
2021/12/10 10:08:26;;;;;;;13.60;6.82;;;3.40;99.90;;;;;;4907295;29;20056;-73
2021/12/10 10:10:56;;;;;;;13.38;6.43;;;3.40;99.90;;;;;;4901143;29;20052;-73
2021/12/10 10:13:26;;;;;;;11.77;6.85;;;3.50;99.90;;;;;;4906545;29;20431;-73
2021/12/10 10:15:56;;;;;;;13.13;6.18;;;3.50;99.90;;;;;;4905112;29;20048;-73
2021/12/10 10:18:22;;;;;;;12.07;6.75;;;3.60;99.90;;;;;;4905245;29;20865;-73
2021/12/10 10:20:54;;;;;;;13.48;6.50;;;3.60;99.90;;;;;;4901226;29;20036;-73
2021/12/10 10:23:21;;;;;;;12.60;6.80;;;3.60;99.90;;;;;;4905291;29;20066;-72
2021/12/10 10:25:51;;;;;;;11.63;6.55;;;3.60;99.90;;;;;;4919333;29;20110;-72
2021/12/10 10:28:17;;;;;;;11.40;6.43;;;3.70;99.90;;;;;;4905212;29;20055;-71
2021/12/10 10:30:58;;;;;;;11.88;6.20;;;3.70;99.90;;;;;;4899504;29;20048;-72
2021/12/10 10:33:26;;;;;;;11.93;6.47;;;3.80;99.90;;;;;;4904393;29;20076;-72
2021/12/10 10:35:55;;;;;;;12.93;6.15;;;3.80;99.90;;;;;;4907666;29;20088;-72
2021/12/10 10:38:21;;;;;;;15.27;6.15;;;3.90;99.90;;;;;;4921202;29;20066;-72
2021/12/10 10:40:55;;;;;;;11.60;5.70;;;3.90;99.90;;;;;;4902006;29;20055;-72
2021/12/10 10:43:23;;;;;;;11.33;5.40;;;4.00;99.90;;;;;;4906272;29;21225;-72
2021/12/10 10:45:49;;;;;;;10.70;5.78;;;4.00;99.90;;;;;;4902219;29;20328;-72
2021/12/10 10:48:17;;;;;;;14.95;5.78;;;4.10;99.90;;;;;;4919763;29;20052;-72
2021/12/10 10:50:50;;;;;;;10.80;5.22;;;4.10;99.90;;;;;;4904411;29;20073;-72
2021/12/10 10:53:20;;;;;;;11.98;5.32;;;4.20;99.90;;;;;;4905592;29;20076;-72
2021/12/10 10:55:54;;;;;;;12.73;6.10;;;4.20;99.90;;;;;;4905278;29;20091;-72
2021/12/10 10:58:22;;;;;;;;;;;4.30;99.90;;;;;;4906296;29;21307;-72
2021/12/10 11:01:08;;;;;;;9.55;4.68;;;4.40;99.90;;;;;;4907046;29;20004;-72
2021/12/10 11:03:51;;;;;;;11.85;5.57;;;4.40;99.90;;;;;;4904211;29;20092;-72
2021/12/10 11:06:39;;;;;;;11.75;4.60;;;4.50;99.90;;;;;;4902454;29;20052;-72
2021/12/10 11:09:21;;;;;;;9.70;4.78;;;4.50;99.90;;;;;;4908957;29;20457;-72
2021/12/10 11:11:49;;;;;;;10.10;5.63;;;4.60;99.90;;;;;;4911922;29;20048;-72
2021/12/10 11:14:24;;;;;;;11.63;5.63;;;4.70;99.90;;;;;;4913391;29;20052;-71
2021/12/10 11:16:52;;;;;;;;;;;4.80;99.90;;;;;;4914977;29;20048;-72
2021/12/10 11:19:21;;;;;;;11.75;4.63;;;4.80;99.90;;;;;;4915753;29;20306;-71
2021/12/10 11:21:56;;;;;;;11.63;4.88;;;4.90;99.90;;;;;;4915065;29;20052;-72
2021/12/10 11:24:45;;;;;;;10.20;5.20;;;5.00;99.90;;;;;;4915371;29;20059;-72
2021/12/10 11:27:17;;;;;;;7.68;4.13;;;5.10;99.90;;;;;;4914149;29;20063;-71
2021/12/10 11:29:50;;;;;;;7.50;4.63;;;5.20;99.90;;;;;;4914149;29;20066;-71
2021/12/10 11:32:16;;;;;;;8.38;4.55;;;5.20;99.90;;;;;;4914356;29;20381;-71
2021/12/10 11:34:49;;;;;;;9.85;4.43;;;5.30;99.90;;;;;;4912446;29;20059;-71
2021/12/10 11:37:18;;;;;;;8.38;4.63;;;5.30;99.90;;;;;;4914244;29;20134;-72
2021/12/10 11:39:52;;;;;;;10.02;4.45;;;5.40;99.90;;;;;;4914761;29;20048;-72
2021/12/10 11:42:55;;;;;;;8.63;4.47;;;5.50;99.90;;;;;;4913137;29;21923;-71
2021/12/10 11:45:40;;;;;;;7.97;4.13;;;5.60;99.90;;;;;;4905381;29;20060;-72
2021/12/10 11:48:11;;;;;;;12.13;4.63;;;5.60;99.90;;;;;;4914079;29;20063;-71
2021/12/10 11:50:44;;;;;;;9.43;4.00;;;5.70;99.90;;;;;;4913785;29;20067;-72
2021/12/10 11:53:13;;;;;;;6.93;3.85;;;5.70;99.90;;;;;;4914673;29;20176;-71
2021/12/10 11:55:58;;;;;;;12.60;3.88;;;5.70;99.90;;;;;;4908913;29;20128;-72
2021/12/10 11:58:24;;;;;;;8.38;3.58;;;5.80;99.90;;;;;;4899586;29;20048;-72
2021/12/10 12:00:51;;;;;;;7.45;3.22;;;5.80;99.90;;;;;;4912470;29;20043;-71
2021/12/10 12:03:17;;;;;;;9.68;4.25;;;5.80;99.90;;;;;;4897080;29;20052;-71
2021/12/10 12:05:44;;;;;;;7.25;4.03;;;5.80;99.90;;;;;;4900432;29;20114;-71
2021/12/10 12:08:13;;;;;;;10.30;4.43;;;5.80;99.90;;;;;;4910772;29;20047;-72
2021/12/10 12:10:58;;;;;;;9.13;3.97;;;5.80;99.90;;;;;;4906038;29;20095;-71
2021/12/10 12:13:39;;;;;;;9.90;4.30;;;5.90;99.90;;;;;;4906470;29;20086;-71
2021/12/10 12:16:14;;;;;;;10.25;3.38;;;5.90;99.90;;;;;;4907595;29;20044;-72
2021/12/10 12:18:44;;;;;;;9.63;4.45;;;5.90;99.90;;;;;;4909900;29;20062;-71
2021/12/10 12:27:08;;;;;;;7.63;3.38;;;5.80;99.90;;;;;;4907212;29;20052;-72
2021/12/10 12:29:46;;;;;;;6.43;3.70;;;5.80;99.90;;;;;;4899263;29;20139;-72
2021/12/10 12:32:23;;;;;;;9.15;3.97;;;5.80;99.90;;;;;;4897851;29;20128;-72
2021/12/10 12:34:50;;;;;;;7.13;4.00;;;5.80;99.90;;;;;;4892320;29;20504;-72
2021/12/10 12:37:21;;;;;;;11.85;3.92;;;5.80;99.90;;;;;;4899436;29;20048;-72
2021/12/10 12:39:53;;;;;;;11.40;4.07;;;5.70;99.90;;;;;;4900176;29;20063;-71
2021/12/10 12:42:24;;;;;;;10.43;3.67;;;5.70;99.90;;;;;;4900428;29;20101;-71
2021/12/10 12:45:03;;;;;;;5.47;2.90;;;5.70;99.90;;;;;;4896388;29;20706;-72
2021/12/10 12:47:32;;;;;;;7.88;3.58;;;5.60;99.90;;;;;;4898997;29;20052;-72
2021/12/10 12:50:04;;;;;;;8.75;3.97;;;5.60;99.90;;;;;;4917351;29;20700;-72
2021/12/10 12:52:45;;;;;;;7.00;3.67;;;5.60;99.90;;;;;;4901508;29;20108;-72
2021/12/10 12:55:21;;;;;;;7.47;3.00;;;5.60;99.90;;;;;;4894095;29;20059;-72
2021/12/10 12:57:55;;;;;;;9.35;3.70;;;5.50;99.90;;;;;;4900407;29;20052;-71
2021/12/10 13:00:32;;;;;;;8.00;3.65;;;5.50;99.90;;;;;;4900378;29;20056;-71
2021/12/10 13:03:04;;;;;;;6.82;3.67;;;5.50;99.90;;;;;;4900722;29;20142;-72
2021/12/10 13:05:41;;;;;;;9.93;3.70;;;5.40;99.90;;;;;;4891352;29;20516;-72
2021/12/10 13:08:13;;;;;;;7.43;3.33;;;5.40;99.90;;;;;;4902105;29;20100;-72